Time;durP1;ratioP1;P1;durP2;ratioP2;P2;SDS_P1;SDS_P2;PMS_P1;PMS_P2;Temp;Humidity;BMP_temperature;BMP_pressure;BME280_temperature;BME280_humidity;BME280_pressure;Samples;Min_cycle;Max_cycle;Signal;HPM_P1;HPM_P2
2022/03/04 05:01:31;;;;;;;22.13;17.47;;;1.80;92.60;;;;;;5434539;23;20543;-67
2022/03/04 05:03:58;;;;;;;18.60;16.40;;;1.90;93.20;;;;;;4956174;29;20916;-67
2022/03/04 05:06:25;;;;;;;19.77;16.90;;;1.90;93.50;;;;;;4956437;29;20466;-67
2022/03/04 05:08:51;;;;;;;25.53;18.30;;;1.90;93.40;;;;;;4956670;29;20462;-69
2022/03/04 05:11:18;;;;;;;20.27;18.07;;;1.90;93.60;;;;;;4956650;29;20486;-68
2022/03/04 05:13:45;;;;;;;24.83;18.30;;;1.90;93.60;;;;;;4956641;29;20494;-68
2022/03/04 05:16:11;;;;;;;19.40;17.30;;;1.90;93.70;;;;;;4956778;29;20455;-69
2022/03/04 05:18:39;;;;;;;20.50;17.90;;;1.90;93.70;;;;;;4956775;29;20460;-68
2022/03/04 05:21:06;;;;;;;18.97;16.97;;;1.90;93.70;;;;;;4956239;29;20473;-67
2022/03/04 05:26:17;;;;;;;21.33;16.73;;;1.90;93.80;;;;;;4956734;29;20492;-68
2022/03/04 05:28:43;;;;;;;20.30;18.20;;;1.90;94.00;;;;;;4957653;29;20458;-69
2022/03/04 05:31:10;;;;;;;28.07;18.90;;;1.90;93.80;;;;;;4961250;29;20482;-68
2022/03/04 05:33:38;;;;;;;27.67;19.33;;;2.00;93.80;;;;;;4956718;29;20489;-69
2022/03/04 05:36:05;;;;;;;21.60;18.40;;;1.80;93.30;;;;;;4956354;29;20454;-70
2022/03/04 05:38:32;;;;;;;21.60;19.30;;;1.70;93.40;;;;;;4956471;29;20461;-70
2022/03/04 05:40:59;;;;;;;23.00;19.43;;;1.60;93.90;;;;;;4956393;29;20960;-69
2022/03/04 05:43:25;;;;;;;25.63;20.57;;;1.40;94.40;;;;;;4955978;29;20465;-69
2022/03/04 05:45:52;;;;;;;23.07;19.73;;;1.30;94.90;;;;;;4956246;29;20462;-68
2022/03/04 05:48:19;;;;;;;30.03;18.77;;;1.40;95.60;;;;;;4956689;29;20460;-69
2022/03/04 05:50:47;;;;;;;24.10;18.80;;;1.60;95.70;;;;;;4956405;29;20989;-69
2022/03/04 05:53:14;;;;;;;24.67;20.20;;;1.60;95.00;;;;;;4955809;29;20478;-69
2022/03/04 05:55:41;;;;;;;24.43;19.90;;;1.40;95.00;;;;;;4956847;29;20507;-69
2022/03/04 05:58:07;;;;;;;23.43;20.10;;;1.30;95.30;;;;;;4956669;29;20467;-69
2022/03/04 06:00:34;;;;;;;21.20;18.83;;;1.10;95.90;;;;;;4956170;29;20488;-69
2022/03/04 06:03:01;;;;;;;24.20;19.70;;;1.00;96.40;;;;;;4957542;29;20454;-69
2022/03/04 06:05:28;;;;;;;22.43;20.13;;;1.00;96.80;;;;;;4958800;29;20519;-69
2022/03/04 06:07:56;;;;;;;23.43;20.23;;;0.90;97.00;;;;;;4958005;29;20458;-69
2022/03/04 06:10:22;;;;;;;21.80;19.50;;;0.80;97.30;;;;;;4958501;29;20463;-69
2022/03/04 06:12:49;;;;;;;24.63;20.60;;;0.80;97.50;;;;;;4958193;29;21010;-68
2022/03/04 06:15:16;;;;;;;24.50;19.93;;;0.70;97.90;;;;;;4957665;29;20456;-69
2022/03/04 06:17:47;;;;;;;22.90;20.33;;;0.70;98.10;;;;;;4957135;29;20452;-69
2022/03/04 06:20:13;;;;;;;25.97;21.17;;;0.60;98.50;;;;;;4956961;29;20851;-69
2022/03/04 06:22:40;;;;;;;27.00;21.27;;;0.60;99.00;;;;;;4957866;29;20464;-69
2022/03/04 06:25:09;;;;;;;23.00;20.50;;;0.50;99.40;;;;;;4957262;29;20460;-70
2022/03/04 06:27:35;;;;;;;25.83;21.10;;;0.70;99.70;;;;;;4958021;29;20456;-70
2022/03/04 06:30:03;;;;;;;22.17;19.83;;;0.70;99.70;;;;;;4957701;29;20537;-69
2022/03/04 06:32:30;;;;;;;24.93;21.50;;;0.80;99.60;;;;;;4957587;29;20561;-68
2022/03/04 06:34:57;;;;;;;23.47;20.67;;;0.90;99.80;;;;;;4957314;29;20491;-69
2022/03/04 06:37:24;;;;;;;24.00;21.40;;;1.00;99.70;;;;;;4956765;29;20808;-69
2022/03/04 06:39:51;;;;;;;27.03;21.27;;;0.90;99.40;;;;;;4956115;29;20817;-70
2022/03/04 06:42:19;;;;;;;23.23;20.77;;;1.00;99.90;;;;;;4956428;29;20479;-69
2022/03/04 06:44:46;;;;;;;23.60;19.50;;;1.50;99.90;;;;;;4956289;29;20458;-70
2022/03/04 06:47:12;;;;;;;29.93;20.40;;;1.80;99.90;;;;;;4955879;29;20823;-69
2022/03/04 06:49:39;;;;;;;26.03;20.43;;;2.70;99.90;;;;;;4956408;29;20470;-69
2022/03/04 06:52:06;;;;;;;23.73;19.33;;;2.60;99.90;;;;;;4956158;29;20481;-69
2022/03/04 06:54:36;;;;;;;23.80;20.30;;;2.50;99.90;;;;;;4955863;29;20481;-71
2022/03/04 06:57:03;;;;;;;25.03;18.63;;;2.60;99.90;;;;;;4957171;29;20462;-69
2022/03/04 06:59:31;;;;;;;21.07;18.80;;;2.70;99.90;;;;;;4956680;29;20460;-70
2022/03/04 07:01:58;;;;;;;23.93;18.70;;;2.80;99.90;;;;;;4960907;29;20569;-70
2022/03/04 07:04:25;;;;;;;22.23;19.10;;;3.20;99.90;;;;;;4959026;28;20463;-68
2022/03/04 07:06:52;;;;;;;20.63;18.10;;;3.90;99.90;;;;;;4960034;29;20459;-69
2022/03/04 07:09:18;;;;;;;22.20;17.80;;;4.70;97.40;;;;;;4959407;29;20488;-69
2022/03/04 07:11:46;;;;;;;20.37;18.27;;;5.20;92.60;;;;;;4958997;29;20472;-69
2022/03/04 07:14:12;;;;;;;24.10;17.43;;;6.00;91.10;;;;;;4958759;29;20818;-69
2022/03/04 07:16:40;;;;;;;24.50;17.73;;;6.60;86.10;;;;;;4959318;29;20459;-68
2022/03/04 07:19:07;;;;;;;22.33;17.40;;;7.20;82.50;;;;;;4959225;29;20463;-69
2022/03/04 07:21:34;;;;;;;20.30;17.60;;;7.40;78.60;;;;;;4958992;29;20480;-68
2022/03/04 07:24:01;;;;;;;22.50;19.67;;;7.90;75.90;;;;;;4959262;29;20460;-68
2022/03/04 07:26:27;;;;;;;21.50;18.03;;;8.50;74.20;;;;;;4959071;29;20464;-68
2022/03/04 07:28:54;;;;;;;22.87;19.47;;;8.90;71.10;;;;;;4958094;29;20823;-68
2022/03/04 07:31:21;;;;;;;21.33;18.87;;;9.00;68.20;;;;;;4958421;29;20480;-68
2022/03/04 07:33:49;;;;;;;21.90;19.20;;;9.30;68.40;;;;;;4960188;29;20486;-68
2022/03/04 07:36:16;;;;;;;21.60;19.30;;;9.80;65.90;;;;;;4966368;29;20523;-67
2022/03/04 07:38:44;;;;;;;24.70;21.17;;;9.70;65.30;;;;;;4963928;29;20483;-67
2022/03/04 07:41:12;;;;;;;28.40;22.30;;;9.60;63.80;;;;;;4960673;29;20511;-67
2022/03/04 07:43:39;;;;;;;25.50;21.00;;;9.60;64.60;;;;;;4959926;29;20474;-66
2022/03/04 07:46:05;;;;;;;25.87;22.30;;;10.00;62.40;;;;;;4958199;29;20963;-67
2022/03/04 07:48:32;;;;;;;28.30;23.83;;;9.70;63.00;;;;;;4959222;29;20467;-67
2022/03/04 07:51:00;;;;;;;26.87;22.70;;;9.20;63.50;;;;;;4959813;29;20482;-67
2022/03/04 07:53:27;;;;;;;26.10;23.10;;;9.30;65.20;;;;;;4957890;29;20467;-67
2022/03/04 07:55:54;;;;;;;24.17;21.57;;;9.70;64.90;;;;;;4958185;29;20458;-67
2022/03/04 07:58:21;;;;;;;25.20;22.60;;;10.50;61.30;;;;;;4957946;29;20464;-67
2022/03/04 08:00:48;;;;;;;29.97;23.00;;;10.70;59.50;;;;;;4957147;29;20483;-67
2022/03/04 08:03:14;;;;;;;22.87;20.47;;;11.40;62.90;;;;;;4957980;29;20468;-67
2022/03/04 08:05:41;;;;;;;24.90;22.37;;;11.80;59.40;;;;;;4957851;29;20835;-66
2022/03/04 08:08:09;;;;;;;24.33;21.73;;;12.00;57.60;;;;;;4957639;29;20459;-67
2022/03/04 08:10:36;;;;;;;23.20;20.47;;;11.20;56.50;;;;;;4957799;29;20503;-66
2022/03/04 08:13:04;;;;;;;23.27;20.87;;;12.40;56.10;;;;;;4957530;29;20456;-65
2022/03/04 08:15:31;;;;;;;22.70;20.30;;;13.20;54.80;;;;;;4956535;28;20515;-66
2022/03/04 08:17:57;;;;;;;22.10;19.90;;;14.20;53.90;;;;;;4957372;29;20456;-65
2022/03/04 08:20:26;;;;;;;24.77;22.20;;;14.70;51.40;;;;;;4957315;29;20482;-66
2022/03/04 08:22:53;;;;;;;24.80;22.10;;;15.70;51.80;;;;;;4957088;29;20556;-67
2022/03/04 08:25:21;;;;;;;25.20;22.60;;;16.40;49.30;;;;;;4957228;29;20503;-66
2022/03/04 08:27:48;;;;;;;23.63;21.23;;;17.20;47.90;;;;;;4957035;29;20459;-67
2022/03/04 08:30:15;;;;;;;24.53;22.03;;;17.40;47.60;;;;;;4957227;29;20470;-67
2022/03/04 08:32:42;;;;;;;25.40;22.43;;;17.00;47.40;;;;;;4957152;29;20486;-67
2022/03/04 08:35:10;;;;;;;26.17;21.40;;;17.60;46.90;;;;;;4958648;29;20475;-66
2022/03/04 08:37:38;;;;;;;25.93;23.43;;;17.70;45.70;;;;;;4957108;29;20459;-66
2022/03/04 08:40:08;;;;;;;25.93;23.43;;;16.80;46.20;;;;;;4957157;29;20466;-67
2022/03/04 08:42:36;;;;;;;24.70;22.30;;;17.10;44.80;;;;;;4956991;29;20476;-67
2022/03/04 08:45:04;;;;;;;27.33;24.47;;;17.10;45.20;;;;;;4957119;29;20452;-66
2022/03/04 08:47:30;;;;;;;26.20;23.60;;;16.40;45.10;;;;;;4956905;29;20452;-67
2022/03/04 08:49:57;;;;;;;25.53;22.93;;;16.10;44.70;;;;;;4957067;29;20459;-67
2022/03/04 08:52:24;;;;;;;26.20;23.60;;;15.70;44.40;;;;;;4957027;29;20508;-66
2022/03/04 08:54:51;;;;;;;25.97;23.37;;;15.00;46.10;;;;;;4956821;29;20483;-66
2022/03/04 08:57:17;;;;;;;26.00;23.20;;;15.90;46.80;;;;;;4957157;29;20515;-66
2022/03/04 08:59:46;;;;;;;26.50;23.70;;;16.00;46.40;;;;;;4956907;29;20440;-66
2022/03/04 09:02:12;;;;;;;26.80;24.10;;;16.30;45.90;;;;;;4956361;29;20487;-66
2022/03/04 09:04:39;;;;;;;28.77;23.93;;;15.60;44.40;;;;;;4956385;29;20448;-66
2022/03/04 09:07:06;;;;;;;26.83;24.10;;;14.60;46.10;;;;;;4956335;29;20466;-66
2022/03/04 09:09:33;;;;;;;28.17;23.70;;;15.10;46.30;;;;;;4956171;29;20459;-66
2022/03/04 09:12:00;;;;;;;27.20;24.40;;;15.20;46.60;;;;;;4956454;29;20480;-66
2022/03/04 09:14:27;;;;;;;29.30;24.57;;;15.70;45.60;;;;;;4956286;29;20484;-67
2022/03/04 09:16:55;;;;;;;27.77;24.97;;;15.90;45.40;;;;;;4956184;29;20943;-66
2022/03/04 09:19:22;;;;;;;29.97;26.50;;;16.10;45.40;;;;;;4956935;29;20451;-66
2022/03/04 09:21:48;;;;;;;29.60;24.50;;;15.70;46.40;;;;;;4956436;29;20479;-68
2022/03/04 09:24:15;;;;;;;27.57;24.77;;;15.30;46.30;;;;;;4956298;29;20448;-66
2022/03/04 09:26:42;;;;;;;26.77;23.67;;;15.60;45.70;;;;;;4956397;28;20456;-66
2022/03/04 09:29:09;;;;;;;28.87;25.73;;;16.10;46.50;;;;;;4956471;29;20456;-66
2022/03/04 09:31:35;;;;;;;28.37;25.40;;;16.70;45.90;;;;;;4956678;29;20480;-66
2022/03/04 09:34:03;;;;;;;28.60;25.80;;;17.40;45.10;;;;;;4956127;29;20487;-67
2022/03/04 09:36:31;;;;;;;26.77;24.03;;;18.30;45.20;;;;;;4956139;29;20475;-68
2022/03/04 09:38:58;;;;;;;26.87;24.13;;;17.90;43.90;;;;;;4956150;29;20536;-67
2022/03/04 09:41:26;;;;;;;26.23;23.70;;;18.10;43.40;;;;;;4955892;29;20511;-66
2022/03/04 09:43:55;;;;;;;25.60;23.17;;;17.60;42.60;;;;;;4956137;29;20462;-67
2022/03/04 09:46:22;;;;;;;28.10;25.20;;;17.30;48.10;;;;;;4955732;29;20943;-66
2022/03/04 09:48:49;;;;;;;29.60;26.50;;;16.50;44.20;;;;;;4955905;29;20467;-67
2022/03/04 09:51:17;;;;;;;28.70;25.80;;;16.10;44.50;;;;;;4955990;29;20471;-67
2022/03/04 09:53:45;;;;;;;27.73;24.87;;;16.60;43.80;;;;;;4956075;29;20467;-67
2022/03/04 09:56:13;;;;;;;27.23;24.50;;;15.60;44.70;;;;;;4956007;29;20483;-67
2022/03/04 09:58:40;;;;;;;28.77;25.83;;;15.20;46.00;;;;;;4956278;29;20456;-66
2022/03/04 10:01:10;;;;;;;27.70;25.00;;;15.70;45.00;;;;;;4956229;29;20526;-67
2022/03/04 10:03:45;;;;;;;27.43;24.73;;;16.90;43.70;;;;;;4956586;29;20440;-67
2022/03/04 10:06:14;;;;;;;28.60;25.70;;;16.80;44.00;;;;;;4959053;29;20958;-67
2022/03/04 10:08:43;;;;;;;27.27;24.33;;;17.60;44.10;;;;;;4958928;29;20483;-68
2022/03/04 10:11:11;;;;;;;27.30;24.47;;;18.40;43.00;;;;;;4956058;29;20478;-67
2022/03/04 10:13:57;;;;;;;28.67;25.87;;;18.40;42.50;;;;;;4955692;29;20495;-67
2022/03/04 10:16:25;;;;;;;28.30;25.50;;;17.40;41.80;;;;;;4955863;29;20428;-67
2022/03/04 10:19:05;;;;;;;29.30;25.13;;;17.80;43.30;;;;;;4956187;29;20539;-68
2022/03/04 10:21:46;;;;;;;27.67;25.07;;;18.10;44.00;;;;;;4955903;29;20492;-66
2022/03/04 10:24:14;;;;;;;26.47;23.87;;;17.30;43.60;;;;;;4956195;29;20454;-68
2022/03/04 10:26:41;;;;;;;25.80;23.40;;;18.70;41.80;;;;;;4955794;29;20459;-67
2022/03/04 10:29:18;;;;;;;28.87;26.07;;;19.50;42.40;;;;;;4956193;29;20459;-67
2022/03/04 10:32:09;;;;;;;26.67;24.13;;;20.00;40.40;;;;;;4955796;29;20503;-68
2022/03/04 10:34:48;;;;;;;29.37;26.03;;;19.50;41.40;;;;;;4955993;29;20563;-66
2022/03/04 10:37:17;;;;;;;27.40;24.60;;;19.20;41.50;;;;;;4964569;29;20459;-66
2022/03/04 10:40:07;;;;;;;27.57;24.80;;;19.60;41.00;;;;;;4967238;28;20470;-67
2022/03/04 10:42:46;;;;;;;26.40;23.63;;;19.90;39.50;;;;;;4961328;29;21058;-66
2022/03/04 10:45:15;;;;;;;26.90;24.27;;;19.80;39.80;;;;;;4959609;29;20436;-67
2022/03/04 10:47:45;;;;;;;26.93;24.20;;;19.60;39.90;;;;;;4959908;29;20456;-67
2022/03/04 10:50:12;;;;;;;25.00;22.60;;;20.40;39.20;;;;;;4959558;29;20503;-67
2022/03/04 10:52:50;;;;;;;27.33;24.63;;;20.90;39.30;;;;;;4959568;29;20463;-67
2022/03/04 10:55:34;;;;;;;26.33;23.63;;;19.80;40.20;;;;;;4959907;29;20463;-67
2022/03/04 10:58:03;;;;;;;26.43;23.93;;;20.00;39.30;;;;;;4959067;29;20451;-67
2022/03/04 11:00:32;;;;;;;27.73;24.97;;;20.20;38.80;;;;;;4958796;29;20847;-67
2022/03/04 11:03:00;;;;;;;28.17;25.20;;;19.70;39.30;;;;;;4959219;29;20441;-67
2022/03/04 11:05:27;;;;;;;25.77;23.17;;;19.50;41.30;;;;;;4959073;29;20816;-67
2022/03/04 11:07:54;;;;;;;26.80;24.10;;;19.20;40.10;;;;;;4958923;29;20459;-67
2022/03/04 11:10:21;;;;;;;28.93;23.07;;;18.70;37.70;;;;;;4958996;29;20456;-66
2022/03/04 11:12:54;;;;;;;25.60;23.03;;;18.30;40.30;;;;;;4958982;29;20464;-66
2022/03/04 11:15:22;;;;;;;25.33;22.73;;;17.20;39.30;;;;;;4959009;29;20464;-67
2022/03/04 11:17:50;;;;;;;24.87;22.43;;;17.10;42.30;;;;;;4958804;29;20459;-68
2022/03/04 11:20:18;;;;;;;26.93;24.10;;;15.90;42.30;;;;;;4959134;29;20467;-67
2022/03/04 11:22:49;;;;;;;26.20;23.70;;;15.90;42.00;;;;;;4958542;29;20463;-67
2022/03/04 11:25:17;;;;;;;27.53;23.37;;;15.00;41.40;;;;;;4958781;29;20483;-67
2022/03/04 11:27:45;;;;;;;26.60;22.70;;;14.10;42.70;;;;;;4960555;29;20460;-67
2022/03/04 11:30:34;;;;;;;26.83;21.90;;;13.30;45.50;;;;;;4959446;29;20456;-66
2022/03/04 11:33:18;;;;;;;25.80;23.10;;;13.40;45.80;;;;;;4959364;29;20440;-67
2022/03/04 11:35:51;;;;;;;30.20;22.57;;;13.40;47.30;;;;;;4959702;29;20891;-67
2022/03/04 11:39:05;;;;;;;26.03;23.33;;;13.30;49.90;;;;;;4961101;29;20459;-67
2022/03/04 11:42:03;;;;;;;24.77;21.60;;;13.50;50.30;;;;;;4960195;29;20478;-67
2022/03/04 11:44:29;;;;;;;24.67;22.27;;;13.50;47.90;;;;;;4952862;29;20818;-67
2022/03/04 11:47:01;;;;;;;24.87;22.27;;;13.00;47.80;;;;;;4960204;29;20455;-67
2022/03/04 11:49:34;;;;;;;25.67;20.80;;;12.90;47.30;;;;;;4960210;29;20439;-67
2022/03/04 11:52:21;;;;;;;22.83;20.53;;;13.20;49.00;;;;;;4960221;28;20486;-67
2022/03/04 11:55:26;;;;;;;26.77;21.53;;;13.60;48.00;;;;;;4959540;29;20472;-67
2022/03/04 11:58:01;;;;;;;22.17;18.97;;;13.60;47.30;;;;;;4960204;29;20832;-66
2022/03/04 12:00:36;;;;;;;23.17;19.60;;;13.20;44.80;;;;;;4959777;29;20495;-66
2022/03/04 12:03:18;;;;;;;23.60;21.03;;;13.60;44.80;;;;;;4958844;29;20912;-66
2022/03/04 12:06:01;;;;;;;24.87;21.03;;;13.80;44.00;;;;;;4958768;29;20888;-67
2022/03/04 12:08:41;;;;;;;22.53;20.10;;;13.60;45.50;;;;;;4958014;29;20475;-67
2022/03/04 12:11:08;;;;;;;26.50;20.30;;;13.80;45.50;;;;;;4957916;29;20518;-67
2022/03/04 12:13:41;;;;;;;20.77;18.77;;;13.70;45.30;;;;;;4958077;29;20459;-67
2022/03/04 12:16:09;;;;;;;23.50;19.30;;;14.00;44.70;;;;;;4957619;29;20492;-66
2022/03/04 12:18:39;;;;;;;21.20;18.77;;;14.10;45.60;;;;;;4957790;29;20466;-66
2022/03/04 12:21:13;;;;;;;21.13;18.37;;;14.10;45.20;;;;;;4957265;29;20894;-66
2022/03/04 12:23:50;;;;;;;21.50;19.20;;;13.80;44.70;;;;;;4957798;29;20486;-66
2022/03/04 12:26:24;;;;;;;20.83;17.67;;;13.80;45.40;;;;;;4957418;29;20447;-68
2022/03/04 12:28:53;;;;;;;23.30;18.93;;;14.00;45.80;;;;;;4958326;29;20531;-66
2022/03/04 12:31:25;;;;;;;21.87;19.10;;;13.90;43.00;;;;;;4957475;29;20480;-66
2022/03/04 12:33:56;;;;;;;20.60;17.77;;;14.00;43.90;;;;;;4957070;29;20839;-66
2022/03/04 12:36:25;;;;;;;19.77;17.10;;;14.10;42.40;;;;;;4957420;29;20471;-66
2022/03/04 12:38:53;;;;;;;19.57;17.57;;;14.20;43.90;;;;;;4957251;29;20455;-66
2022/03/04 12:41:21;;;;;;;21.57;17.10;;;14.20;41.70;;;;;;4957347;29;20482;-67
2022/03/04 12:43:49;;;;;;;19.80;17.70;;;14.20;39.90;;;;;;4957066;29;20946;-66
2022/03/04 12:46:18;;;;;;;19.30;16.87;;;14.20;41.70;;;;;;4956994;29;20463;-66
2022/03/04 12:48:44;;;;;;;16.60;14.90;;;13.30;41.20;;;;;;4957010;29;20456;-68
2022/03/04 12:51:25;;;;;;;18.40;15.17;;;13.00;41.00;;;;;;4956960;29;20479;-67
2022/03/04 12:53:53;;;;;;;17.03;15.00;;;12.90;41.10;;;;;;4957244;29;20444;-67
2022/03/04 12:56:22;;;;;;;15.57;13.97;;;12.40;40.60;;;;;;4956794;29;20999;-67
2022/03/04 12:58:51;;;;;;;17.17;15.10;;;12.40;40.80;;;;;;4956895;29;20515;-66
2022/03/04 13:01:19;;;;;;;15.40;13.60;;;12.60;41.70;;;;;;4956285;28;20499;-67
2022/03/04 13:03:47;;;;;;;16.57;13.53;;;12.60;41.70;;;;;;4956338;29;20463;-67
2022/03/04 13:06:14;;;;;;;16.03;13.87;;;12.90;43.90;;;;;;4956605;29;20455;-67
2022/03/04 13:08:55;;;;;;;17.17;14.57;;;13.00;42.10;;;;;;4957295;29;20448;-67
2022/03/04 13:11:24;;;;;;;20.00;16.80;;;13.20;41.80;;;;;;4961860;29;20480;-67
2022/03/04 13:13:54;;;;;;;17.33;15.50;;;13.20;41.90;;;;;;4956419;29;20533;-67
2022/03/04 13:16:25;;;;;;;18.43;16.47;;;13.30;41.50;;;;;;4956523;29;20484;-67
2022/03/04 13:18:52;;;;;;;17.13;15.30;;;13.40;42.70;;;;;;4956735;29;20483;-67
2022/03/04 13:21:20;;;;;;;17.77;15.90;;;13.40;42.80;;;;;;4956259;29;20538;-67
2022/03/04 13:23:54;;;;;;;17.47;15.50;;;13.40;41.70;;;;;;4956397;29;20460;-67
2022/03/04 13:26:22;;;;;;;17.53;15.70;;;13.20;43.30;;;;;;4956402;29;20451;-68
2022/03/04 13:28:57;;;;;;;24.03;17.00;;;12.90;40.60;;;;;;4956257;29;20819;-65
2022/03/04 13:31:26;;;;;;;18.30;14.97;;;12.60;41.10;;;;;;4957754;29;21015;-66
2022/03/04 13:34:00;;;;;;;17.20;14.57;;;12.70;42.10;;;;;;4956568;29;20788;-66
2022/03/04 13:36:56;;;;;;;19.17;16.77;;;12.60;43.10;;;;;;4956423;29;20466;-68
2022/03/04 13:39:26;;;;;;;16.73;14.97;;;12.70;44.80;;;;;;4915892;29;20456;-67
2022/03/04 13:42:23;;;;;;;16.10;14.40;;;12.80;42.00;;;;;;4965696;29;20483;-67
2022/03/04 13:45:06;;;;;;;14.37;12.73;;;13.10;42.00;;;;;;4883379;29;20824;-67
2022/03/04 13:47:35;;;;;;;15.90;13.93;;;13.40;41.40;;;;;;4946715;29;20466;-67
2022/03/04 13:50:06;;;;;;;15.17;13.20;;;13.20;39.60;;;;;;4956685;29;20467;-66
2022/03/04 13:52:54;;;;;;;15.30;13.80;;;12.90;40.90;;;;;;4956026;29;20860;-66
2022/03/04 13:55:34;;;;;;;16.80;14.57;;;13.00;42.40;;;;;;4956798;29;20440;-67
2022/03/04 13:58:08;;;;;;;16.47;14.77;;;13.50;40.40;;;;;;4956007;29;20463;-67
2022/03/04 14:00:36;;;;;;;17.73;14.00;;;13.50;40.30;;;;;;4955618;29;20488;-66
2022/03/04 14:03:07;;;;;;;14.60;13.10;;;13.70;39.50;;;;;;4956229;29;20463;-66
2022/03/04 14:05:35;;;;;;;14.60;13.10;;;13.60;41.00;;;;;;4956180;29;20443;-67
2022/03/04 14:08:04;;;;;;;13.33;11.90;;;13.70;41.60;;;;;;4956307;29;20460;-66
2022/03/04 14:10:32;;;;;;;12.63;11.13;;;13.50;40.40;;;;;;4955975;29;20793;-66
2022/03/04 14:13:00;;;;;;;12.53;11.20;;;12.90;39.00;;;;;;4956175;28;20456;-68
2022/03/04 14:15:27;;;;;;;11.00;9.90;;;13.00;39.70;;;;;;4958447;29;20515;-67
2022/03/04 14:17:55;;;;;;;11.10;9.60;;;13.00;37.80;;;;;;4959375;29;20466;-69
2022/03/04 14:20:23;;;;;;;12.27;10.93;;;12.90;41.30;;;;;;4959960;29;20464;-67
2022/03/04 14:22:50;;;;;;;10.90;9.70;;;13.10;44.50;;;;;;4959730;29;20463;-67
2022/03/04 14:25:17;;;;;;;12.97;11.10;;;13.30;43.10;;;;;;4960022;29;20482;-68
2022/03/04 14:27:48;;;;;;;12.43;10.77;;;13.50;42.30;;;;;;4959558;29;20947;-68
2022/03/04 14:30:17;;;;;;;17.43;11.50;;;13.50;42.00;;;;;;4959771;29;20535;-68
2022/03/04 14:32:44;;;;;;;13.40;11.43;;;13.70;45.10;;;;;;4959878;29;20466;-68
2022/03/04 14:35:12;;;;;;;11.30;9.70;;;13.70;41.20;;;;;;4960627;29;20943;-67
2022/03/04 14:37:40;;;;;;;12.63;11.33;;;13.60;41.90;;;;;;4960479;29;20489;-68
2022/03/04 14:40:10;;;;;;;16.80;11.60;;;13.60;40.60;;;;;;4960168;29;20455;-68
2022/03/04 14:42:38;;;;;;;13.13;11.70;;;13.70;43.10;;;;;;4961851;29;20978;-68
2022/03/04 14:45:08;;;;;;;13.20;11.60;;;13.80;41.40;;;;;;4960439;29;20440;-67
2022/03/04 14:47:35;;;;;;;14.30;12.80;;;13.80;41.50;;;;;;4959171;29;20965;-68
2022/03/04 14:50:03;;;;;;;11.83;10.50;;;13.70;40.10;;;;;;4959244;29;20459;-68
2022/03/04 14:52:29;;;;;;;13.90;12.13;;;13.70;41.70;;;;;;4959307;29;20483;-68
2022/03/04 14:54:56;;;;;;;12.70;11.40;;;13.70;41.20;;;;;;4959548;29;20537;-67
2022/03/04 14:57:23;;;;;;;12.53;11.30;;;13.80;42.10;;;;;;4959229;29;20476;-67
2022/03/04 14:59:50;;;;;;;12.80;11.53;;;13.60;41.70;;;;;;4959147;29;20827;-67
2022/03/04 15:02:18;;;;;;;14.93;12.60;;;13.40;39.60;;;;;;4958709;29;20515;-67
2022/03/04 15:04:45;;;;;;;13.53;12.13;;;13.40;41.60;;;;;;4959135;29;20459;-67
2022/03/04 15:07:14;;;;;;;12.83;11.37;;;13.30;41.80;;;;;;4959136;29;20456;-67
2022/03/04 15:09:42;;;;;;;13.00;10.60;;;13.30;40.30;;;;;;4959142;29;20562;-70
2022/03/04 15:12:11;;;;;;;12.90;11.00;;;13.00;40.20;;;;;;4959096;29;20486;-69
2022/03/04 15:14:38;;;;;;;15.73;13.70;;;12.90;40.40;;;;;;4959213;29;20440;-70
2022/03/04 15:17:07;;;;;;;15.37;13.77;;;12.90;39.60;;;;;;4959241;29;20479;-70
2022/03/04 15:19:37;;;;;;;16.00;13.70;;;12.80;40.70;;;;;;4958820;29;20499;-68
2022/03/04 15:22:05;;;;;;;15.03;13.43;;;12.50;40.30;;;;;;4958908;29;20484;-69
2022/03/04 15:24:32;;;;;;;14.50;12.93;;;12.50;40.20;;;;;;4958493;28;20456;-69
2022/03/04 15:27:00;;;;;;;14.47;12.33;;;12.40;40.40;;;;;;4958450;29;20474;-67
2022/03/04 15:29:28;;;;;;;15.30;12.03;;;12.40;40.80;;;;;;4958196;29;20549;-69
2022/03/04 15:31:56;;;;;;;14.40;12.90;;;12.30;41.10;;;;;;4958656;29;20543;-68
2022/03/04 15:34:23;;;;;;;15.83;14.13;;;12.20;41.30;;;;;;4958431;29;20550;-68
2022/03/04 15:36:51;;;;;;;15.73;12.13;;;11.90;40.50;;;;;;4958414;29;20483;-68
2022/03/04 15:39:18;;;;;;;15.70;13.60;;;11.80;41.10;;;;;;4958285;29;20532;-68
2022/03/04 15:41:48;;;;;;;16.77;13.47;;;11.80;41.00;;;;;;4959152;29;20490;-68
2022/03/04 15:44:15;;;;;;;15.40;13.23;;;11.60;41.90;;;;;;4957937;29;20463;-68
2022/03/04 15:46:42;;;;;;;14.13;12.67;;;11.40;42.90;;;;;;4957954;29;20478;-69
2022/03/04 15:49:09;;;;;;;14.27;12.77;;;11.40;42.50;;;;;;4958574;29;20452;-69
2022/03/04 15:51:36;;;;;;;12.20;10.40;;;11.20;41.90;;;;;;4957685;29;20480;-68
2022/03/04 15:54:04;;;;;;;13.53;11.70;;;10.90;42.00;;;;;;4957865;29;20456;-68
2022/03/04 15:56:30;;;;;;;14.63;11.40;;;10.50;42.40;;;;;;4957974;29;20476;-68
2022/03/04 15:58:57;;;;;;;16.17;12.50;;;10.40;42.60;;;;;;4957953;29;20466;-68
2022/03/04 16:01:24;;;;;;;15.37;11.50;;;10.30;43.00;;;;;;4957490;29;20487;-67
2022/03/04 16:03:51;;;;;;;15.77;11.80;;;10.10;43.10;;;;;;4957887;29;20471;-67
2022/03/04 16:06:18;;;;;;;14.00;11.50;;;10.10;43.80;;;;;;4957583;29;20456;-69
2022/03/04 16:08:45;;;;;;;13.83;12.13;;;9.90;45.30;;;;;;4957883;29;20544;-68
2022/03/04 16:11:13;;;;;;;15.27;13.40;;;10.00;44.60;;;;;;4957818;29;20483;-69
2022/03/04 16:13:44;;;;;;;13.80;12.03;;;10.00;44.30;;;;;;4964776;29;20440;-69
2022/03/04 16:16:12;;;;;;;13.97;11.30;;;9.90;45.40;;;;;;4962621;29;20464;-68
2022/03/04 16:18:39;;;;;;;15.60;11.33;;;9.90;46.30;;;;;;4957774;29;20460;-68
2022/03/04 16:21:07;;;;;;;13.03;11.63;;;9.90;46.40;;;;;;4957471;29;20503;-68
2022/03/04 16:23:34;;;;;;;14.13;11.47;;;9.60;46.20;;;;;;4958020;29;20819;-68
2022/03/04 16:26:01;;;;;;;16.00;11.70;;;9.40;46.10;;;;;;4957327;29;20455;-67
2022/03/04 16:28:29;;;;;;;15.33;12.50;;;9.40;46.80;;;;;;4957539;29;20551;-67
2022/03/04 16:30:56;;;;;;;13.70;11.63;;;9.30;47.40;;;;;;4957364;29;20476;-67
2022/03/04 16:33:23;;;;;;;13.97;11.40;;;9.30;47.60;;;;;;4957617;29;20464;-67
2022/03/04 16:35:50;;;;;;;14.20;11.63;;;9.20;47.90;;;;;;4957322;29;20800;-68
2022/03/04 16:38:21;;;;;;;15.80;11.80;;;9.10;47.80;;;;;;4956231;28;20479;-67
2022/03/04 16:40:48;;;;;;;16.30;13.07;;;9.00;48.10;;;;;;4957420;29;20558;-68
2022/03/04 16:43:16;;;;;;;15.83;12.70;;;9.00;48.10;;;;;;4958375;29;20456;-68
2022/03/04 16:45:44;;;;;;;18.87;11.70;;;9.00;54.70;;;;;;4965311;29;20482;-67
2022/03/04 16:48:14;;;;;;;14.63;9.40;;;9.00;50.10;;;;;;4966288;29;20455;-68
2022/03/04 16:50:43;;;;;;;14.37;10.40;;;8.80;48.80;;;;;;4959244;29;20483;-69
2022/03/04 16:53:09;;;;;;;12.63;11.00;;;8.90;49.20;;;;;;4956717;29;20464;-67
2022/03/04 16:55:36;;;;;;;13.07;10.83;;;8.90;49.20;;;;;;4956601;29;20464;-67
2022/03/04 16:58:04;;;;;;;13.20;8.43;;;8.70;49.20;;;;;;4956270;29;20495;-68
2022/03/04 17:00:31;;;;;;;12.03;9.90;;;8.60;49.60;;;;;;4956053;29;20483;-67
2022/03/04 17:02:59;;;;;;;11.70;8.73;;;8.60;50.00;;;;;;4956290;29;20535;-66
2022/03/04 17:05:26;;;;;;;14.83;7.73;;;8.60;49.70;;;;;;4956536;29;20459;-67
2022/03/04 17:07:54;;;;;;;11.53;8.40;;;8.40;50.10;;;;;;4956464;29;20456;-66
2022/03/04 17:10:21;;;;;;;12.30;8.93;;;8.20;50.10;;;;;;4956314;29;20459;-68
2022/03/04 17:12:48;;;;;;;9.37;8.47;;;8.10;50.20;;;;;;4956607;29;20464;-67
2022/03/04 17:15:14;;;;;;;7.50;6.73;;;8.10;51.10;;;;;;4956595;29;20462;-67
2022/03/04 17:17:41;;;;;;;9.27;7.60;;;8.10;50.50;;;;;;4956584;29;20482;-68
2022/03/04 17:20:12;;;;;;;12.17;7.47;;;8.00;50.40;;;;;;4957291;29;20851;-67
2022/03/04 17:22:39;;;;;;;8.07;7.27;;;7.90;51.20;;;;;;4956545;29;20522;-68
2022/03/04 17:25:07;;;;;;;7.97;7.17;;;7.90;51.10;;;;;;4956322;29;20459;-68
2022/03/04 17:27:34;;;;;;;9.23;7.40;;;7.70;51.50;;;;;;4957252;29;20489;-67
2022/03/04 17:30:02;;;;;;;16.07;10.97;;;7.80;51.80;;;;;;4957386;29;20444;-68
2022/03/04 17:32:29;;;;;;;9.27;7.80;;;7.80;51.80;;;;;;4956956;29;20480;-68
2022/03/04 17:34:58;;;;;;;11.10;7.97;;;7.70;51.60;;;;;;4956678;29;20502;-69
2022/03/04 17:37:26;;;;;;;8.03;6.80;;;7.60;51.90;;;;;;4956209;29;20519;-68
2022/03/04 17:39:56;;;;;;;7.10;6.40;;;7.70;52.10;;;;;;4956552;29;20804;-68
2022/03/04 17:42:23;;;;;;;8.13;7.13;;;7.70;52.70;;;;;;4956221;29;20570;-69
2022/03/04 17:44:50;;;;;;;9.70;7.90;;;7.80;53.00;;;;;;4956428;29;20456;-68